sensor_id;sensor_type;location;lat;lon;timestamp;temperature;humidity
22645;DHT22;11489;50.834;6.752;2024-03-02T00:00:08;8.40;90.00
22645;DHT22;11489;50.834;6.752;2024-03-02T00:02:45;8.40;89.60
22645;DHT22;11489;50.834;6.752;2024-03-02T00:05:19;8.40;89.80
22645;DHT22;11489;50.834;6.752;2024-03-02T00:07:53;8.40;89.80
22645;DHT22;11489;50.834;6.752;2024-03-02T00:10:23;8.40;90.00
22645;DHT22;11489;50.834;6.752;2024-03-02T00:12:51;8.50;90.00
22645;DHT22;11489;50.834;6.752;2024-03-02T00:18:10;8.50;89.00
22645;DHT22;11489;50.834;6.752;2024-03-02T00:20:37;8.50;90.00
22645;DHT22;11489;50.834;6.752;2024-03-02T00:23:05;8.50;90.10
22645;DHT22;11489;50.834;6.752;2024-03-02T00:25:45;8.50;90.10
22645;DHT22;11489;50.834;6.752;2024-03-02T00:28:32;8.50;89.40
22645;DHT22;11489;50.834;6.752;2024-03-02T00:31:04;8.50;89.60
22645;DHT22;11489;50.834;6.752;2024-03-02T00:33:32;8.50;90.10
22645;DHT22;11489;50.834;6.752;2024-03-02T00:35:59;8.50;90.10
22645;DHT22;11489;50.834;6.752;2024-03-02T00:38:26;8.60;90.20
22645;DHT22;11489;50.834;6.752;2024-03-02T00:40:52;8.60;90.20
22645;DHT22;11489;50.834;6.752;2024-03-02T00:43:38;8.60;90.30
22645;DHT22;11489;50.834;6.752;2024-03-02T00:46:06;8.60;89.40
22645;DHT22;11489;50.834;6.752;2024-03-02T00:48:32;8.60;90.20
22645;DHT22;11489;50.834;6.752;2024-03-02T00:51:01;8.60;90.10
22645;DHT22;11489;50.834;6.752;2024-03-02T00:53:29;8.60;90.00
22645;DHT22;11489;50.834;6.752;2024-03-02T00:55:57;8.60;90.00
22645;DHT22;11489;50.834;6.752;2024-03-02T00:58:22;8.60;89.80
22645;DHT22;11489;50.834;6.752;2024-03-02T01:00:48;8.50;89.80
22645;DHT22;11489;50.834;6.752;2024-03-02T01:03:14;8.50;89.70
22645;DHT22;11489;50.834;6.752;2024-03-02T01:05:43;8.50;89.60
22645;DHT22;11489;50.834;6.752;2024-03-02T01:08:10;8.50;89.40
22645;DHT22;11489;50.834;6.752;2024-03-02T01:10:35;8.40;89.60
22645;DHT22;11489;50.834;6.752;2024-03-02T01:13:01;8.30;89.60
22645;DHT22;11489;50.834;6.752;2024-03-02T01:15:27;8.30;89.90
22645;DHT22;11489;50.834;6.752;2024-03-02T01:17:52;8.30;90.10
22645;DHT22;11489;50.834;6.752;2024-03-02T01:20:18;8.30;90.20
22645;DHT22;11489;50.834;6.752;2024-03-02T01:22:44;8.30;90.50
22645;DHT22;11489;50.834;6.752;2024-03-02T01:25:09;8.30;90.30
22645;DHT22;11489;50.834;6.752;2024-03-02T01:27:35;8.30;90.30
22645;DHT22;11489;50.834;6.752;2024-03-02T01:30:01;8.30;90.30
22645;DHT22;11489;50.834;6.752;2024-03-02T01:32:26;8.30;90.30
22645;DHT22;11489;50.834;6.752;2024-03-02T01:34:52;8.40;90.40
22645;DHT22;11489;50.834;6.752;2024-03-02T01:37:18;8.40;90.40
22645;DHT22;11489;50.834;6.752;2024-03-02T01:39:43;8.40;90.40
22645;DHT22;11489;50.834;6.752;2024-03-02T01:42:09;8.40;90.40
22645;DHT22;11489;50.834;6.752;2024-03-02T01:44:36;8.40;90.30
22645;DHT22;11489;50.834;6.752;2024-03-02T01:47:02;8.40;90.20
22645;DHT22;11489;50.834;6.752;2024-03-02T01:49:28;8.40;90.10
22645;DHT22;11489;50.834;6.752;2024-03-02T01:51:53;8.40;90.10
22645;DHT22;11489;50.834;6.752;2024-03-02T01:54:19;8.40;90.10
22645;DHT22;11489;50.834;6.752;2024-03-02T01:56:45;8.40;90.00
22645;DHT22;11489;50.834;6.752;2024-03-02T01:59:11;8.30;90.00
22645;DHT22;11489;50.834;6.752;2024-03-02T02:01:38;8.30;90.10
22645;DHT22;11489;50.834;6.752;2024-03-02T02:04:04;8.20;90.10
22645;DHT22;11489;50.834;6.752;2024-03-02T02:06:32;8.20;90.20
22645;DHT22;11489;50.834;6.752;2024-03-02T02:08:57;8.20;90.30
22645;DHT22;11489;50.834;6.752;2024-03-02T02:11:24;8.20;90.40
22645;DHT22;11489;50.834;6.752;2024-03-02T02:13:50;8.20;90.40
22645;DHT22;11489;50.834;6.752;2024-03-02T02:16:16;8.20;90.50
22645;DHT22;11489;50.834;6.752;2024-03-02T02:18:41;8.20;90.50
22645;DHT22;11489;50.834;6.752;2024-03-02T02:21:07;8.20;90.60
22645;DHT22;11489;50.834;6.752;2024-03-02T02:23:33;8.20;90.60
22645;DHT22;11489;50.834;6.752;2024-03-02T02:25:59;8.20;90.60
22645;DHT22;11489;50.834;6.752;2024-03-02T02:28:25;8.20;90.70
22645;DHT22;11489;50.834;6.752;2024-03-02T02:30:50;8.30;90.70
22645;DHT22;11489;50.834;6.752;2024-03-02T02:33:16;8.30;90.70
22645;DHT22;11489;50.834;6.752;2024-03-02T02:35:42;8.30;90.70
22645;DHT22;11489;50.834;6.752;2024-03-02T02:38:08;8.30;90.70
22645;DHT22;11489;50.834;6.752;2024-03-02T02:40:33;8.30;90.70
22645;DHT22;11489;50.834;6.752;2024-03-02T02:42:59;8.40;90.70
22645;DHT22;11489;50.834;6.752;2024-03-02T02:45:25;8.30;90.70
22645;DHT22;11489;50.834;6.752;2024-03-02T02:47:51;8.40;90.70
22645;DHT22;11489;50.834;6.752;2024-03-02T02:50:17;8.40;90.70
22645;DHT22;11489;50.834;6.752;2024-03-02T02:52:43;8.40;90.70
22645;DHT22;11489;50.834;6.752;2024-03-02T02:55:10;8.40;90.70
22645;DHT22;11489;50.834;6.752;2024-03-02T02:57:38;8.40;90.70
22645;DHT22;11489;50.834;6.752;2024-03-02T03:00:09;8.40;91.00
22645;DHT22;11489;50.834;6.752;2024-03-02T03:02:37;8.40;90.60
22645;DHT22;11489;50.834;6.752;2024-03-02T03:05:04;8.50;90.80
22645;DHT22;11489;50.834;6.752;2024-03-02T03:07:32;8.50;90.70
22645;DHT22;11489;50.834;6.752;2024-03-02T03:09:58;8.50;90.70
22645;DHT22;11489;50.834;6.752;2024-03-02T03:12:24;8.50;90.80
22645;DHT22;11489;50.834;6.752;2024-03-02T03:14:53;8.50;90.80
22645;DHT22;11489;50.834;6.752;2024-03-02T03:17:18;8.60;90.70
22645;DHT22;11489;50.834;6.752;2024-03-02T03:19:44;8.60;90.70
22645;DHT22;11489;50.834;6.752;2024-03-02T03:22:09;8.50;90.70
22645;DHT22;11489;50.834;6.752;2024-03-02T03:24:35;8.50;90.70
22645;DHT22;11489;50.834;6.752;2024-03-02T03:27:01;8.60;90.70
22645;DHT22;11489;50.834;6.752;2024-03-02T03:29:26;8.50;90.70
22645;DHT22;11489;50.834;6.752;2024-03-02T03:31:52;8.50;90.70
22645;DHT22;11489;50.834;6.752;2024-03-02T03:34:18;8.50;90.80
22645;DHT22;11489;50.834;6.752;2024-03-02T03:36:44;8.50;90.80
22645;DHT22;11489;50.834;6.752;2024-03-02T03:39:09;8.50;90.80
22645;DHT22;11489;50.834;6.752;2024-03-02T03:41:35;8.60;90.90
22645;DHT22;11489;50.834;6.752;2024-03-02T03:44:01;8.60;90.80
22645;DHT22;11489;50.834;6.752;2024-03-02T03:46:27;8.60;90.80
22645;DHT22;11489;50.834;6.752;2024-03-02T03:48:52;8.60;90.80
22645;DHT22;11489;50.834;6.752;2024-03-02T03:51:18;8.60;90.80
22645;DHT22;11489;50.834;6.752;2024-03-02T03:53:44;8.60;90.80
22645;DHT22;11489;50.834;6.752;2024-03-02T03:56:09;8.60;90.80
22645;DHT22;11489;50.834;6.752;2024-03-02T03:58:35;8.60;90.80
22645;DHT22;11489;50.834;6.752;2024-03-02T04:01:01;8.60;90.80
22645;DHT22;11489;50.834;6.752;2024-03-02T04:03:26;8.60;90.70
22645;DHT22;11489;50.834;6.752;2024-03-02T04:05:52;8.60;90.60
22645;DHT22;11489;50.834;6.752;2024-03-02T04:08:18;8.60;90.50
22645;DHT22;11489;50.834;6.752;2024-03-02T04:10:43;8.60;90.60
22645;DHT22;11489;50.834;6.752;2024-03-02T04:13:09;8.60;90.70
22645;DHT22;11489;50.834;6.752;2024-03-02T04:15:35;8.60;90.70
22645;DHT22;11489;50.834;6.752;2024-03-02T04:18:01;8.60;90.60
22645;DHT22;11489;50.834;6.752;2024-03-02T04:20:27;8.60;90.70
22645;DHT22;11489;50.834;6.752;2024-03-02T04:22:52;8.60;90.70
22645;DHT22;11489;50.834;6.752;2024-03-02T04:25:18;8.60;90.60
22645;DHT22;11489;50.834;6.752;2024-03-02T04:27:45;8.60;90.50
22645;DHT22;11489;50.834;6.752;2024-03-02T04:30:11;8.60;90.50
22645;DHT22;11489;50.834;6.752;2024-03-02T04:32:37;8.60;90.40
22645;DHT22;11489;50.834;6.752;2024-03-02T04:35:03;8.50;90.40
22645;DHT22;11489;50.834;6.752;2024-03-02T04:37:29;8.50;90.40
22645;DHT22;11489;50.834;6.752;2024-03-02T04:39:56;8.50;90.40
22645;DHT22;11489;50.834;6.752;2024-03-02T04:42:22;8.40;90.40
22645;DHT22;11489;50.834;6.752;2024-03-02T04:44:48;8.40;90.50
22645;DHT22;11489;50.834;6.752;2024-03-02T04:47:14;8.40;90.40
22645;DHT22;11489;50.834;6.752;2024-03-02T04:49:39;8.30;90.40
22645;DHT22;11489;50.834;6.752;2024-03-02T04:52:05;8.30;90.30
22645;DHT22;11489;50.834;6.752;2024-03-02T04:54:31;8.20;90.20
22645;DHT22;11489;50.834;6.752;2024-03-02T04:56:56;8.20;90.20
22645;DHT22;11489;50.834;6.752;2024-03-02T04:59:22;8.10;90.20
22645;DHT22;11489;50.834;6.752;2024-03-02T05:01:48;8.00;90.30
22645;DHT22;11489;50.834;6.752;2024-03-02T05:04:13;7.90;90.40
22645;DHT22;11489;50.834;6.752;2024-03-02T05:06:39;7.90;90.60
22645;DHT22;11489;50.834;6.752;2024-03-02T05:09:08;7.80;90.70
22645;DHT22;11489;50.834;6.752;2024-03-02T05:11:34;7.80;90.70
22645;DHT22;11489;50.834;6.752;2024-03-02T05:14:06;7.80;90.80
22645;DHT22;11489;50.834;6.752;2024-03-02T05:16:35;7.80;90.70
22645;DHT22;11489;50.834;6.752;2024-03-02T05:19:02;7.80;90.60
22645;DHT22;11489;50.834;6.752;2024-03-02T05:21:27;7.70;90.70
22645;DHT22;11489;50.834;6.752;2024-03-02T05:23:53;7.70;90.80
22645;DHT22;11489;50.834;6.752;2024-03-02T05:26:19;7.60;90.80
22645;DHT22;11489;50.834;6.752;2024-03-02T05:28:44;7.60;90.80
22645;DHT22;11489;50.834;6.752;2024-03-02T05:31:10;7.60;90.90
22645;DHT22;11489;50.834;6.752;2024-03-02T05:33:40;7.50;90.90
22645;DHT22;11489;50.834;6.752;2024-03-02T05:36:06;7.50;90.90
22645;DHT22;11489;50.834;6.752;2024-03-02T05:38:34;7.50;91.00
22645;DHT22;11489;50.834;6.752;2024-03-02T05:41:00;7.50;91.10
22645;DHT22;11489;50.834;6.752;2024-03-02T05:43:26;7.50;91.20
22645;DHT22;11489;50.834;6.752;2024-03-02T05:45:52;7.50;91.20
22645;DHT22;11489;50.834;6.752;2024-03-02T05:48:17;7.50;91.20
22645;DHT22;11489;50.834;6.752;2024-03-02T05:50:43;7.60;91.20
22645;DHT22;11489;50.834;6.752;2024-03-02T05:53:09;7.50;91.20
22645;DHT22;11489;50.834;6.752;2024-03-02T05:55:34;7.60;91.20
22645;DHT22;11489;50.834;6.752;2024-03-02T05:58:00;7.50;91.10
22645;DHT22;11489;50.834;6.752;2024-03-02T06:00:32;7.60;91.10
22645;DHT22;11489;50.834;6.752;2024-03-02T06:02:58;7.60;91.20
22645;DHT22;11489;50.834;6.752;2024-03-02T06:05:24;7.50;91.20
22645;DHT22;11489;50.834;6.752;2024-03-02T06:07:50;7.60;91.30
22645;DHT22;11489;50.834;6.752;2024-03-02T06:10:16;7.60;91.40
22645;DHT22;11489;50.834;6.752;2024-03-02T06:12:43;7.60;91.40
22645;DHT22;11489;50.834;6.752;2024-03-02T06:15:09;7.60;91.50
22645;DHT22;11489;50.834;6.752;2024-03-02T06:17:35;7.70;91.50
22645;DHT22;11489;50.834;6.752;2024-03-02T06:20:01;7.70;91.50
22645;DHT22;11489;50.834;6.752;2024-03-02T06:22:27;7.80;91.60
22645;DHT22;11489;50.834;6.752;2024-03-02T06:24:53;7.80;91.60
22645;DHT22;11489;50.834;6.752;2024-03-02T06:27:18;7.90;91.60
22645;DHT22;11489;50.834;6.752;2024-03-02T06:29:44;7.90;91.60
22645;DHT22;11489;50.834;6.752;2024-03-02T06:32:10;8.00;91.50
22645;DHT22;11489;50.834;6.752;2024-03-02T06:34:35;8.00;91.50
22645;DHT22;11489;50.834;6.752;2024-03-02T06:37:01;8.10;91.40
22645;DHT22;11489;50.834;6.752;2024-03-02T06:39:27;8.10;91.40
22645;DHT22;11489;50.834;6.752;2024-03-02T06:41:52;8.10;91.40
22645;DHT22;11489;50.834;6.752;2024-03-02T06:44:18;8.10;91.40
22645;DHT22;11489;50.834;6.752;2024-03-02T06:46:44;8.20;91.40
22645;DHT22;11489;50.834;6.752;2024-03-02T06:49:09;8.20;91.40
22645;DHT22;11489;50.834;6.752;2024-03-02T06:51:38;8.20;91.40
22645;DHT22;11489;50.834;6.752;2024-03-02T06:54:03;8.20;91.40
22645;DHT22;11489;50.834;6.752;2024-03-02T06:56:29;8.20;91.40
22645;DHT22;11489;50.834;6.752;2024-03-02T06:58:56;8.30;91.50
22645;DHT22;11489;50.834;6.752;2024-03-02T07:01:21;8.30;91.50
22645;DHT22;11489;50.834;6.752;2024-03-02T07:03:47;8.30;91.50
22645;DHT22;11489;50.834;6.752;2024-03-02T07:06:13;8.30;91.60
22645;DHT22;11489;50.834;6.752;2024-03-02T07:08:39;8.30;91.60
22645;DHT22;11489;50.834;6.752;2024-03-02T07:11:04;8.40;91.60
22645;DHT22;11489;50.834;6.752;2024-03-02T07:13:30;8.40;91.70
22645;DHT22;11489;50.834;6.752;2024-03-02T07:15:55;8.40;91.60
22645;DHT22;11489;50.834;6.752;2024-03-02T07:18:40;8.50;91.70
22645;DHT22;11489;50.834;6.752;2024-03-02T07:21:16;8.60;91.70
22645;DHT22;11489;50.834;6.752;2024-03-02T07:23:42;8.70;91.80
22645;DHT22;11489;50.834;6.752;2024-03-02T07:26:07;8.80;91.80
22645;DHT22;11489;50.834;6.752;2024-03-02T07:28:33;8.80;91.70
22645;DHT22;11489;50.834;6.752;2024-03-02T07:31:03;8.80;91.60
22645;DHT22;11489;50.834;6.752;2024-03-02T07:33:30;8.90;91.60
22645;DHT22;11489;50.834;6.752;2024-03-02T07:35:57;9.00;91.70
22645;DHT22;11489;50.834;6.752;2024-03-02T07:38:25;9.00;91.70
22645;DHT22;11489;50.834;6.752;2024-03-02T07:40:51;9.10;91.60
22645;DHT22;11489;50.834;6.752;2024-03-02T07:43:17;9.10;91.50
22645;DHT22;11489;50.834;6.752;2024-03-02T07:45:43;9.20;91.40
22645;DHT22;11489;50.834;6.752;2024-03-02T07:48:09;9.20;91.30
22645;DHT22;11489;50.834;6.752;2024-03-02T07:50:34;9.20;91.20
22645;DHT22;11489;50.834;6.752;2024-03-02T07:53:03;9.20;91.20
22645;DHT22;11489;50.834;6.752;2024-03-02T07:55:30;9.20;91.20
22645;DHT22;11489;50.834;6.752;2024-03-02T07:57:56;9.30;91.30
22645;DHT22;11489;50.834;6.752;2024-03-02T08:00:22;9.30;91.40
22645;DHT22;11489;50.834;6.752;2024-03-02T08:02:49;9.40;91.70
22645;DHT22;11489;50.834;6.752;2024-03-02T08:05:16;9.40;91.70
22645;DHT22;11489;50.834;6.752;2024-03-02T08:07:44;9.50;91.80
22645;DHT22;11489;50.834;6.752;2024-03-02T08:10:10;9.60;91.60
22645;DHT22;11489;50.834;6.752;2024-03-02T08:12:36;9.70;91.80
22645;DHT22;11489;50.834;6.752;2024-03-02T08:15:01;9.90;91.90
22645;DHT22;11489;50.834;6.752;2024-03-02T08:17:27;10.00;91.90
22645;DHT22;11489;50.834;6.752;2024-03-02T08:19:53;10.10;91.80
22645;DHT22;11489;50.834;6.752;2024-03-02T08:22:19;10.20;91.40
22645;DHT22;11489;50.834;6.752;2024-03-02T08:24:45;10.30;91.20
22645;DHT22;11489;50.834;6.752;2024-03-02T08:27:11;10.40;91.00
22645;DHT22;11489;50.834;6.752;2024-03-02T08:29:37;10.50;90.80
22645;DHT22;11489;50.834;6.752;2024-03-02T08:32:04;10.60;90.80
22645;DHT22;11489;50.834;6.752;2024-03-02T08:34:30;10.60;90.60
22645;DHT22;11489;50.834;6.752;2024-03-02T08:36:56;10.60;90.50
22645;DHT22;11489;50.834;6.752;2024-03-02T08:39:21;10.70;90.50
22645;DHT22;11489;50.834;6.752;2024-03-02T08:41:47;10.70;90.50
22645;DHT22;11489;50.834;6.752;2024-03-02T08:44:14;10.70;90.30
22645;DHT22;11489;50.834;6.752;2024-03-02T08:46:40;10.80;90.40
22645;DHT22;11489;50.834;6.752;2024-03-02T08:49:06;10.80;90.40
22645;DHT22;11489;50.834;6.752;2024-03-02T08:51:32;10.80;90.20
22645;DHT22;11489;50.834;6.752;2024-03-02T08:53:59;10.90;90.40
22645;DHT22;11489;50.834;6.752;2024-03-02T08:56:25;10.90;90.20
22645;DHT22;11489;50.834;6.752;2024-03-02T08:58:51;10.90;90.30
22645;DHT22;11489;50.834;6.752;2024-03-02T09:01:18;11.00;90.30
22645;DHT22;11489;50.834;6.752;2024-03-02T09:03:45;11.00;90.20
22645;DHT22;11489;50.834;6.752;2024-03-02T09:06:12;11.00;90.40
22645;DHT22;11489;50.834;6.752;2024-03-02T09:08:38;11.10;90.20
22645;DHT22;11489;50.834;6.752;2024-03-02T09:11:07;11.10;90.00
22645;DHT22;11489;50.834;6.752;2024-03-02T09:13:33;11.20;90.00
22645;DHT22;11489;50.834;6.752;2024-03-02T09:15:59;11.20;90.10
22645;DHT22;11489;50.834;6.752;2024-03-02T09:18:24;11.30;89.90
22645;DHT22;11489;50.834;6.752;2024-03-02T09:20:50;11.40;90.20
22645;DHT22;11489;50.834;6.752;2024-03-02T09:23:16;11.50;90.30
22645;DHT22;11489;50.834;6.752;2024-03-02T09:25:41;11.50;90.50
22645;DHT22;11489;50.834;6.752;2024-03-02T09:28:07;11.70;90.30
22645;DHT22;11489;50.834;6.752;2024-03-02T09:30:33;11.80;90.10
22645;DHT22;11489;50.834;6.752;2024-03-02T09:32:59;11.90;89.40
22645;DHT22;11489;50.834;6.752;2024-03-02T09:35:25;11.90;89.30
22645;DHT22;11489;50.834;6.752;2024-03-02T09:37:50;12.00;89.30
22645;DHT22;11489;50.834;6.752;2024-03-02T09:40:16;12.10;88.90
22645;DHT22;11489;50.834;6.752;2024-03-02T09:42:43;12.10;88.30
22645;DHT22;11489;50.834;6.752;2024-03-02T09:45:10;12.10;88.30
22645;DHT22;11489;50.834;6.752;2024-03-02T09:47:36;12.20;88.50
22645;DHT22;11489;50.834;6.752;2024-03-02T09:50:02;12.30;88.70
22645;DHT22;11489;50.834;6.752;2024-03-02T09:52:30;12.40;88.70
22645;DHT22;11489;50.834;6.752;2024-03-02T09:54:56;12.50;88.70
22645;DHT22;11489;50.834;6.752;2024-03-02T09:57:22;12.60;89.10
22645;DHT22;11489;50.834;6.752;2024-03-02T09:59:48;12.70;88.40
22645;DHT22;11489;50.834;6.752;2024-03-02T10:02:13;12.90;87.30
22645;DHT22;11489;50.834;6.752;2024-03-02T10:04:39;13.00;87.40
22645;DHT22;11489;50.834;6.752;2024-03-02T10:07:15;13.10;87.60
22645;DHT22;11489;50.834;6.752;2024-03-02T10:09:42;13.20;85.00
22645;DHT22;11489;50.834;6.752;2024-03-02T10:12:09;13.30;87.20
22645;DHT22;11489;50.834;6.752;2024-03-02T10:14:35;13.40;86.50
22645;DHT22;11489;50.834;6.752;2024-03-02T10:17:09;13.60;86.70
22645;DHT22;11489;50.834;6.752;2024-03-02T10:19:35;13.70;84.40
22645;DHT22;11489;50.834;6.752;2024-03-02T10:22:07;13.80;85.50
22645;DHT22;11489;50.834;6.752;2024-03-02T10:24:37;13.90;83.90
22645;DHT22;11489;50.834;6.752;2024-03-02T10:27:16;14.00;84.40
22645;DHT22;11489;50.834;6.752;2024-03-02T10:29:45;14.10;84.10
22645;DHT22;11489;50.834;6.752;2024-03-02T10:32:11;14.20;84.60
22645;DHT22;11489;50.834;6.752;2024-03-02T10:34:39;14.20;83.90
22645;DHT22;11489;50.834;6.752;2024-03-02T10:37:06;14.30;84.20
22645;DHT22;11489;50.834;6.752;2024-03-02T10:39:34;14.40;83.70
22645;DHT22;11489;50.834;6.752;2024-03-02T10:42:02;14.50;83.80
22645;DHT22;11489;50.834;6.752;2024-03-02T10:44:29;14.50;83.20
22645;DHT22;11489;50.834;6.752;2024-03-02T10:46:56;14.60;83.10
22645;DHT22;11489;50.834;6.752;2024-03-02T10:49:23;14.70;82.90
22645;DHT22;11489;50.834;6.752;2024-03-02T10:51:49;14.70;82.00
22645;DHT22;11489;50.834;6.752;2024-03-02T10:54:15;14.70;82.90
22645;DHT22;11489;50.834;6.752;2024-03-02T10:56:43;14.80;82.80
22645;DHT22;11489;50.834;6.752;2024-03-02T10:59:30;14.90;83.20
22645;DHT22;11489;50.834;6.752;2024-03-02T11:01:59;15.00;80.10
22645;DHT22;11489;50.834;6.752;2024-03-02T11:04:29;15.00;81.40
22645;DHT22;11489;50.834;6.752;2024-03-02T11:07:02;15.10;81.30
22645;DHT22;11489;50.834;6.752;2024-03-02T11:09:28;15.20;80.90
22645;DHT22;11489;50.834;6.752;2024-03-02T11:12:05;15.30;82.30
22645;DHT22;11489;50.834;6.752;2024-03-02T11:14:32;15.40;80.70
22645;DHT22;11489;50.834;6.752;2024-03-02T11:17:03;15.50;81.50
22645;DHT22;11489;50.834;6.752;2024-03-02T11:19:31;15.50;80.60
22645;DHT22;11489;50.834;6.752;2024-03-02T11:21:57;15.60;80.80
22645;DHT22;11489;50.834;6.752;2024-03-02T11:27:06;15.70;82.20
22645;DHT22;11489;50.834;6.752;2024-03-02T11:32:17;16.00;82.00
22645;DHT22;11489;50.834;6.752;2024-03-02T11:34:45;16.10;82.00
22645;DHT22;11489;50.834;6.752;2024-03-02T11:37:13;16.30;81.90
22645;DHT22;11489;50.834;6.752;2024-03-02T11:39:39;16.50;81.80
22645;DHT22;11489;50.834;6.752;2024-03-02T11:42:06;16.60;80.90
22645;DHT22;11489;50.834;6.752;2024-03-02T11:44:34;16.70;79.70
22645;DHT22;11489;50.834;6.752;2024-03-02T11:47:08;16.70;78.00
22645;DHT22;11489;50.834;6.752;2024-03-02T11:52:07;16.40;76.00
22645;DHT22;11489;50.834;6.752;2024-03-02T11:54:36;16.20;77.00
22645;DHT22;11489;50.834;6.752;2024-03-02T11:57:03;16.10;76.90
22645;DHT22;11489;50.834;6.752;2024-03-02T11:59:29;15.90;76.40
22645;DHT22;11489;50.834;6.752;2024-03-02T12:01:56;15.70;76.30
22645;DHT22;11489;50.834;6.752;2024-03-02T12:04:23;15.60;76.60
22645;DHT22;11489;50.834;6.752;2024-03-02T12:06:55;15.40;77.10
22645;DHT22;11489;50.834;6.752;2024-03-02T12:09:21;15.30;76.70
22645;DHT22;11489;50.834;6.752;2024-03-02T12:11:47;15.20;78.40
22645;DHT22;11489;50.834;6.752;2024-03-02T12:14:13;15.20;79.10
22645;DHT22;11489;50.834;6.752;2024-03-02T12:16:39;15.20;79.60
22645;DHT22;11489;50.834;6.752;2024-03-02T12:19:08;15.30;80.30
22645;DHT22;11489;50.834;6.752;2024-03-02T12:21:34;15.40;80.30
22645;DHT22;11489;50.834;6.752;2024-03-02T12:24:01;15.50;80.50
22645;DHT22;11489;50.834;6.752;2024-03-02T12:26:26;15.60;79.70
22645;DHT22;11489;50.834;6.752;2024-03-02T12:28:52;15.70;79.80
22645;DHT22;11489;50.834;6.752;2024-03-02T12:31:18;15.80;79.80
22645;DHT22;11489;50.834;6.752;2024-03-02T12:33:44;15.80;79.10
22645;DHT22;11489;50.834;6.752;2024-03-02T12:36:10;15.80;78.20
22645;DHT22;11489;50.834;6.752;2024-03-02T12:38:37;15.80;78.30
22645;DHT22;11489;50.834;6.752;2024-03-02T12:41:08;15.80;78.10
22645;DHT22;11489;50.834;6.752;2024-03-02T12:43:34;15.80;78.70
22645;DHT22;11489;50.834;6.752;2024-03-02T12:45:59;15.80;78.20
22645;DHT22;11489;50.834;6.752;2024-03-02T12:48:25;15.80;78.00
22645;DHT22;11489;50.834;6.752;2024-03-02T12:50:51;15.80;78.20
22645;DHT22;11489;50.834;6.752;2024-03-02T12:53:17;15.80;78.00
22645;DHT22;11489;50.834;6.752;2024-03-02T12:55:43;15.80;77.90
22645;DHT22;11489;50.834;6.752;2024-03-02T12:58:19;15.80;78.10
22645;DHT22;11489;50.834;6.752;2024-03-02T13:00:46;15.80;76.80
22645;DHT22;11489;50.834;6.752;2024-03-02T13:03:13;15.80;78.00
22645;DHT22;11489;50.834;6.752;2024-03-02T13:05:39;15.70;77.60
22645;DHT22;11489;50.834;6.752;2024-03-02T13:08:06;15.80;78.40
22645;DHT22;11489;50.834;6.752;2024-03-02T13:10:32;15.80;78.30
22645;DHT22;11489;50.834;6.752;2024-03-02T13:12:58;15.80;77.50
22645;DHT22;11489;50.834;6.752;2024-03-02T13:15:26;15.80;77.60
22645;DHT22;11489;50.834;6.752;2024-03-02T13:17:52;15.70;77.20
22645;DHT22;11489;50.834;6.752;2024-03-02T13:20:18;15.70;77.70
22645;DHT22;11489;50.834;6.752;2024-03-02T13:22:45;15.70;77.40
22645;DHT22;11489;50.834;6.752;2024-03-02T13:25:12;15.60;77.50
22645;DHT22;11489;50.834;6.752;2024-03-02T13:27:37;15.60;77.70
22645;DHT22;11489;50.834;6.752;2024-03-02T13:30:03;15.60;77.90
22645;DHT22;11489;50.834;6.752;2024-03-02T13:32:31;15.60;78.10
22645;DHT22;11489;50.834;6.752;2024-03-02T13:34:57;15.60;78.50
22645;DHT22;11489;50.834;6.752;2024-03-02T13:37:23;15.60;77.90
22645;DHT22;11489;50.834;6.752;2024-03-02T13:39:49;15.60;78.10
22645;DHT22;11489;50.834;6.752;2024-03-02T13:42:15;15.60;78.00
22645;DHT22;11489;50.834;6.752;2024-03-02T13:44:44;15.60;77.50
22645;DHT22;11489;50.834;6.752;2024-03-02T13:47:12;15.50;77.40
22645;DHT22;11489;50.834;6.752;2024-03-02T13:49:38;15.50;77.30
22645;DHT22;11489;50.834;6.752;2024-03-02T13:52:09;15.50;77.50
22645;DHT22;11489;50.834;6.752;2024-03-02T13:54:39;15.40;78.30
22645;DHT22;11489;50.834;6.752;2024-03-02T13:57:06;15.40;77.40
22645;DHT22;11489;50.834;6.752;2024-03-02T13:59:33;15.40;77.80
22645;DHT22;11489;50.834;6.752;2024-03-02T14:02:01;15.30;77.50
22645;DHT22;11489;50.834;6.752;2024-03-02T14:04:26;15.30;77.90
22645;DHT22;11489;50.834;6.752;2024-03-02T14:06:52;15.20;77.80
22645;DHT22;11489;50.834;6.752;2024-03-02T14:09:18;15.20;77.90
22645;DHT22;11489;50.834;6.752;2024-03-02T14:11:46;15.10;77.90
22645;DHT22;11489;50.834;6.752;2024-03-02T14:14:11;15.20;78.30
22645;DHT22;11489;50.834;6.752;2024-03-02T14:16:37;15.20;78.70
22645;DHT22;11489;50.834;6.752;2024-03-02T14:19:03;15.20;78.50
22645;DHT22;11489;50.834;6.752;2024-03-02T14:21:30;15.20;78.20
22645;DHT22;11489;50.834;6.752;2024-03-02T14:23:56;15.20;77.80
22645;DHT22;11489;50.834;6.752;2024-03-02T14:26:21;15.20;77.80
22645;DHT22;11489;50.834;6.752;2024-03-02T14:28:47;15.10;77.70
22645;DHT22;11489;50.834;6.752;2024-03-02T14:31:13;15.10;77.20
22645;DHT22;11489;50.834;6.752;2024-03-02T14:33:39;15.00;76.90
22645;DHT22;11489;50.834;6.752;2024-03-02T14:36:05;14.90;77.00
22645;DHT22;11489;50.834;6.752;2024-03-02T14:38:31;14.90;77.30
22645;DHT22;11489;50.834;6.752;2024-03-02T14:40:57;14.80;77.10
22645;DHT22;11489;50.834;6.752;2024-03-02T14:43:24;14.70;77.40
22645;DHT22;11489;50.834;6.752;2024-03-02T14:45:49;14.70;77.60
22645;DHT22;11489;50.834;6.752;2024-03-02T14:48:16;14.60;77.70
22645;DHT22;11489;50.834;6.752;2024-03-02T14:50:42;14.60;77.70
22645;DHT22;11489;50.834;6.752;2024-03-02T14:53:08;14.60;78.30
22645;DHT22;11489;50.834;6.752;2024-03-02T14:55:33;14.50;78.00
22645;DHT22;11489;50.834;6.752;2024-03-02T14:57:59;14.50;78.50
22645;DHT22;11489;50.834;6.752;2024-03-02T15:00:25;14.50;78.20
22645;DHT22;11489;50.834;6.752;2024-03-02T15:02:51;14.60;78.50
22645;DHT22;11489;50.834;6.752;2024-03-02T15:05:17;14.50;78.40
22645;DHT22;11489;50.834;6.752;2024-03-02T15:07:43;14.60;78.60
22645;DHT22;11489;50.834;6.752;2024-03-02T15:10:09;14.60;78.90
22645;DHT22;11489;50.834;6.752;2024-03-02T15:12:35;14.70;78.80
22645;DHT22;11489;50.834;6.752;2024-03-02T15:15:01;14.80;78.50
22645;DHT22;11489;50.834;6.752;2024-03-02T15:17:26;14.80;78.10
22645;DHT22;11489;50.834;6.752;2024-03-02T15:19:52;14.90;78.10
22645;DHT22;11489;50.834;6.752;2024-03-02T15:22:17;14.90;77.60
22645;DHT22;11489;50.834;6.752;2024-03-02T15:24:43;14.90;77.70
22645;DHT22;11489;50.834;6.752;2024-03-02T15:27:09;14.90;77.60
22645;DHT22;11489;50.834;6.752;2024-03-02T15:29:50;14.90;78.10
22645;DHT22;11489;50.834;6.752;2024-03-02T15:32:18;14.90;76.70
22645;DHT22;11489;50.834;6.752;2024-03-02T15:34:43;14.80;77.90
22645;DHT22;11489;50.834;6.752;2024-03-02T15:37:09;14.80;77.40
22645;DHT22;11489;50.834;6.752;2024-03-02T15:39:59;14.70;77.00
22645;DHT22;11489;50.834;6.752;2024-03-02T15:42:37;14.70;75.60
22645;DHT22;11489;50.834;6.752;2024-03-02T15:45:03;14.70;76.90
22645;DHT22;11489;50.834;6.752;2024-03-02T15:47:30;14.70;77.90